sensor_id;sensor_type;location;lat;lon;timestamp;temperature;humidity
23957;DHT22;12165;45.458;11.062;2022-08-18T00:01:10;22.10;99.90
23957;DHT22;12165;45.458;11.062;2022-08-18T00:03:41;22.10;99.90
23957;DHT22;12165;45.458;11.062;2022-08-18T00:06:27;22.10;99.90
23957;DHT22;12165;45.458;11.062;2022-08-18T00:08:57;22.00;99.90
23957;DHT22;12165;45.458;11.062;2022-08-18T00:11:26;22.10;99.90
23957;DHT22;12165;45.458;11.062;2022-08-18T00:13:53;22.10;99.90
23957;DHT22;12165;45.458;11.062;2022-08-18T00:16:20;22.20;99.90
23957;DHT22;12165;45.458;11.062;2022-08-18T00:18:47;22.10;99.90
23957;DHT22;12165;45.458;11.062;2022-08-18T00:21:14;22.00;99.90
23957;DHT22;12165;45.458;11.062;2022-08-18T00:23:41;21.90;99.90
23957;DHT22;12165;45.458;11.062;2022-08-18T00:26:08;21.80;99.90
23957;DHT22;12165;45.458;11.062;2022-08-18T00:28:35;21.70;99.90
23957;DHT22;12165;45.458;11.062;2022-08-18T00:31:03;21.70;99.90
23957;DHT22;12165;45.458;11.062;2022-08-18T00:33:31;21.80;99.90
23957;DHT22;12165;45.458;11.062;2022-08-18T00:35:58;21.90;99.90
23957;DHT22;12165;45.458;11.062;2022-08-18T00:38:25;22.00;99.90
23957;DHT22;12165;45.458;11.062;2022-08-18T00:40:54;22.00;99.90
23957;DHT22;12165;45.458;11.062;2022-08-18T00:43:44;22.00;99.90
23957;DHT22;12165;45.458;11.062;2022-08-18T00:46:16;22.20;99.90
23957;DHT22;12165;45.458;11.062;2022-08-18T00:48:44;22.40;99.90
23957;DHT22;12165;45.458;11.062;2022-08-18T00:51:33;22.50;99.90
23957;DHT22;12165;45.458;11.062;2022-08-18T00:54:43;22.40;99.90
23957;DHT22;12165;45.458;11.062;2022-08-18T00:57:04;22.00;99.90
23957;DHT22;12165;45.458;11.062;2022-08-18T00:59:44;22.00;99.90
23957;DHT22;12165;45.458;11.062;2022-08-18T01:02:23;22.00;99.90
23957;DHT22;12165;45.458;11.062;2022-08-18T01:07:40;21.90;99.90
23957;DHT22;12165;45.458;11.062;2022-08-18T01:10:13;22.00;99.90
23957;DHT22;12165;45.458;11.062;2022-08-18T01:12:43;22.00;99.90
23957;DHT22;12165;45.458;11.062;2022-08-18T01:15:14;22.00;99.90
23957;DHT22;12165;45.458;11.062;2022-08-18T01:18:02;22.00;99.90
23957;DHT22;12165;45.458;11.062;2022-08-18T01:23:45;21.70;99.90
23957;DHT22;12165;45.458;11.062;2022-08-18T01:26:14;21.50;99.90
23957;DHT22;12165;45.458;11.062;2022-08-18T01:28:44;21.50;99.90
23957;DHT22;12165;45.458;11.062;2022-08-18T01:34:26;21.60;99.90
23957;DHT22;12165;45.458;11.062;2022-08-18T01:36:54;21.70;99.90
23957;DHT22;12165;45.458;11.062;2022-08-18T01:39:22;21.80;99.90
23957;DHT22;12165;45.458;11.062;2022-08-18T01:42:11;21.80;99.90
23957;DHT22;12165;45.458;11.062;2022-08-18T01:44:39;21.60;99.90
23957;DHT22;12165;45.458;11.062;2022-08-18T01:47:09;21.60;99.90
23957;DHT22;12165;45.458;11.062;2022-08-18T01:49:38;21.50;99.90
23957;DHT22;12165;45.458;11.062;2022-08-18T01:52:10;21.60;99.90
23957;DHT22;12165;45.458;11.062;2022-08-18T01:54:39;21.50;99.90
23957;DHT22;12165;45.458;11.062;2022-08-18T01:57:07;21.60;99.90
23957;DHT22;12165;45.458;11.062;2022-08-18T01:59:40;21.50;99.90
23957;DHT22;12165;45.458;11.062;2022-08-18T02:02:09;21.50;99.90
23957;DHT22;12165;45.458;11.062;2022-08-18T02:04:44;21.50;99.90
23957;DHT22;12165;45.458;11.062;2022-08-18T02:07:12;21.50;99.90
23957;DHT22;12165;45.458;11.062;2022-08-18T02:09:42;21.50;99.90
23957;DHT22;12165;45.458;11.062;2022-08-18T02:12:09;21.50;99.90
23957;DHT22;12165;45.458;11.062;2022-08-18T02:14:37;21.60;99.90
23957;DHT22;12165;45.458;11.062;2022-08-18T02:17:06;21.70;99.90
23957;DHT22;12165;45.458;11.062;2022-08-18T02:19:40;21.80;99.90
23957;DHT22;12165;45.458;11.062;2022-08-18T02:22:08;21.80;99.90
23957;DHT22;12165;45.458;11.062;2022-08-18T02:24:36;21.90;99.90
23957;DHT22;12165;45.458;11.062;2022-08-18T02:27:04;22.00;99.90
23957;DHT22;12165;45.458;11.062;2022-08-18T02:29:31;21.90;99.90
23957;DHT22;12165;45.458;11.062;2022-08-18T02:31:58;21.90;99.90
23957;DHT22;12165;45.458;11.062;2022-08-18T02:34:25;22.00;99.90
23957;DHT22;12165;45.458;11.062;2022-08-18T02:36:52;22.10;99.90
23957;DHT22;12165;45.458;11.062;2022-08-18T02:39:20;22.10;99.90
23957;DHT22;12165;45.458;11.062;2022-08-18T02:41:47;22.10;99.90
23957;DHT22;12165;45.458;11.062;2022-08-18T02:44:14;22.10;99.90
23957;DHT22;12165;45.458;11.062;2022-08-18T02:46:41;22.10;99.90
23957;DHT22;12165;45.458;11.062;2022-08-18T02:49:08;22.10;99.90
23957;DHT22;12165;45.458;11.062;2022-08-18T02:51:35;22.10;99.90
23957;DHT22;12165;45.458;11.062;2022-08-18T02:54:02;22.10;99.90
23957;DHT22;12165;45.458;11.062;2022-08-18T02:56:35;22.10;99.90
23957;DHT22;12165;45.458;11.062;2022-08-18T02:59:14;22.20;99.90
23957;DHT22;12165;45.458;11.062;2022-08-18T03:01:44;22.20;99.90
23957;DHT22;12165;45.458;11.062;2022-08-18T03:04:14;22.30;99.90
23957;DHT22;12165;45.458;11.062;2022-08-18T03:06:42;21.90;99.90
23957;DHT22;12165;45.458;11.062;2022-08-18T03:09:12;21.50;99.90
23957;DHT22;12165;45.458;11.062;2022-08-18T03:11:40;21.00;99.90
23957;DHT22;12165;45.458;11.062;2022-08-18T03:14:09;20.90;99.90
23957;DHT22;12165;45.458;11.062;2022-08-18T03:16:42;20.70;99.90
23957;DHT22;12165;45.458;11.062;2022-08-18T03:19:22;20.50;99.90
23957;DHT22;12165;45.458;11.062;2022-08-18T03:21:49;20.20;99.90
23957;DHT22;12165;45.458;11.062;2022-08-18T03:24:16;20.00;99.90
23957;DHT22;12165;45.458;11.062;2022-08-18T03:26:51;19.80;99.90
23957;DHT22;12165;45.458;11.062;2022-08-18T03:29:19;20.10;99.90
23957;DHT22;12165;45.458;11.062;2022-08-18T03:31:46;20.30;99.90
23957;DHT22;12165;45.458;11.062;2022-08-18T03:34:15;20.20;99.90
23957;DHT22;12165;45.458;11.062;2022-08-18T03:36:46;20.10;99.90
23957;DHT22;12165;45.458;11.062;2022-08-18T03:39:13;20.00;99.90
23957;DHT22;12165;45.458;11.062;2022-08-18T03:41:42;19.70;99.90
23957;DHT22;12165;45.458;11.062;2022-08-18T03:44:34;19.30;99.90
23957;DHT22;12165;45.458;11.062;2022-08-18T03:47:07;19.50;99.90
23957;DHT22;12165;45.458;11.062;2022-08-18T03:49:35;19.60;99.90
23957;DHT22;12165;45.458;11.062;2022-08-18T03:52:03;19.60;99.90
23957;DHT22;12165;45.458;11.062;2022-08-18T03:54:32;19.50;99.90
23957;DHT22;12165;45.458;11.062;2022-08-18T03:57:00;19.60;99.90
23957;DHT22;12165;45.458;11.062;2022-08-18T03:59:27;19.70;99.90
23957;DHT22;12165;45.458;11.062;2022-08-18T04:01:57;19.90;99.90
23957;DHT22;12165;45.458;11.062;2022-08-18T04:04:26;20.10;99.90
23957;DHT22;12165;45.458;11.062;2022-08-18T04:07:05;20.20;99.90
23957;DHT22;12165;45.458;11.062;2022-08-18T04:09:33;20.30;99.90
23957;DHT22;12165;45.458;11.062;2022-08-18T04:12:07;20.40;99.90
23957;DHT22;12165;45.458;11.062;2022-08-18T04:14:45;20.60;99.90
23957;DHT22;12165;45.458;11.062;2022-08-18T04:17:14;20.60;99.90
23957;DHT22;12165;45.458;11.062;2022-08-18T04:19:41;20.30;99.90
23957;DHT22;12165;45.458;11.062;2022-08-18T04:22:08;20.20;99.90
23957;DHT22;12165;45.458;11.062;2022-08-18T04:24:42;20.30;99.90
23957;DHT22;12165;45.458;11.062;2022-08-18T04:27:11;20.30;99.90
23957;DHT22;12165;45.458;11.062;2022-08-18T04:29:38;20.40;99.90
23957;DHT22;12165;45.458;11.062;2022-08-18T04:32:05;20.30;99.90
23957;DHT22;12165;45.458;11.062;2022-08-18T04:34:33;20.30;99.90
23957;DHT22;12165;45.458;11.062;2022-08-18T04:37:00;20.50;99.90
23957;DHT22;12165;45.458;11.062;2022-08-18T04:39:28;20.60;99.90
23957;DHT22;12165;45.458;11.062;2022-08-18T04:41:56;20.70;99.90
23957;DHT22;12165;45.458;11.062;2022-08-18T04:44:25;20.70;99.90
23957;DHT22;12165;45.458;11.062;2022-08-18T04:46:53;20.50;99.90
23957;DHT22;12165;45.458;11.062;2022-08-18T04:49:22;20.80;99.90
23957;DHT22;12165;45.458;11.062;2022-08-18T04:51:52;21.10;99.90
23957;DHT22;12165;45.458;11.062;2022-08-18T04:54:57;20.60;99.90
23957;DHT22;12165;45.458;11.062;2022-08-18T04:57:26;20.50;99.90
23957;DHT22;12165;45.458;11.062;2022-08-18T04:59:59;20.40;99.90
23957;DHT22;12165;45.458;11.062;2022-08-18T05:02:25;20.40;99.90
23957;DHT22;12165;45.458;11.062;2022-08-18T05:04:52;20.40;99.90
23957;DHT22;12165;45.458;11.062;2022-08-18T05:07:21;20.50;99.90
23957;DHT22;12165;45.458;11.062;2022-08-18T05:09:51;20.50;99.90
23957;DHT22;12165;45.458;11.062;2022-08-18T05:12:19;20.50;99.90
23957;DHT22;12165;45.458;11.062;2022-08-18T05:14:52;20.60;99.90
23957;DHT22;12165;45.458;11.062;2022-08-18T05:17:19;20.60;99.90
23957;DHT22;12165;45.458;11.062;2022-08-18T05:19:47;20.60;99.90
23957;DHT22;12165;45.458;11.062;2022-08-18T05:22:15;20.60;99.90
23957;DHT22;12165;45.458;11.062;2022-08-18T05:24:56;20.40;99.90
23957;DHT22;12165;45.458;11.062;2022-08-18T05:27:23;20.30;99.90
23957;DHT22;12165;45.458;11.062;2022-08-18T05:29:50;20.40;99.90
23957;DHT22;12165;45.458;11.062;2022-08-18T05:32:17;20.40;99.90
23957;DHT22;12165;45.458;11.062;2022-08-18T05:35:12;20.50;99.90
23957;DHT22;12165;45.458;11.062;2022-08-18T05:40:23;20.70;99.90
23957;DHT22;12165;45.458;11.062;2022-08-18T05:42:51;20.90;99.90
23957;DHT22;12165;45.458;11.062;2022-08-18T05:45:18;21.10;99.90
23957;DHT22;12165;45.458;11.062;2022-08-18T05:47:46;21.30;99.90
23957;DHT22;12165;45.458;11.062;2022-08-18T05:50:17;21.40;99.90
23957;DHT22;12165;45.458;11.062;2022-08-18T05:58:29;21.80;99.90
23957;DHT22;12165;45.458;11.062;2022-08-18T06:01:06;21.80;99.90
23957;DHT22;12165;45.458;11.062;2022-08-18T06:03:44;21.80;99.90
23957;DHT22;12165;45.458;11.062;2022-08-18T06:06:17;21.90;99.90
23957;DHT22;12165;45.458;11.062;2022-08-18T06:11:19;21.90;99.90
23957;DHT22;12165;45.458;11.062;2022-08-18T06:13:49;22.00;99.90
23957;DHT22;12165;45.458;11.062;2022-08-18T06:22:06;22.00;99.90
23957;DHT22;12165;45.458;11.062;2022-08-18T06:24:59;22.30;99.90
23957;DHT22;12165;45.458;11.062;2022-08-18T06:27:54;22.50;99.90
23957;DHT22;12165;45.458;11.062;2022-08-18T06:30:26;22.50;99.90
23957;DHT22;12165;45.458;11.062;2022-08-18T06:36:03;23.20;99.90
23957;DHT22;12165;45.458;11.062;2022-08-18T06:41:35;24.50;99.90
23957;DHT22;12165;45.458;11.062;2022-08-18T06:44:22;24.20;99.90
23957;DHT22;12165;45.458;11.062;2022-08-18T06:55:08;24.20;99.90
23957;DHT22;12165;45.458;11.062;2022-08-18T06:57:40;24.20;99.90
23957;DHT22;12165;45.458;11.062;2022-08-18T07:02:52;23.40;99.90
23957;DHT22;12165;45.458;11.062;2022-08-18T07:05:27;23.10;99.90
23957;DHT22;12165;45.458;11.062;2022-08-18T07:10:51;22.60;99.90
23957;DHT22;12165;45.458;11.062;2022-08-18T07:13:20;22.60;99.90
23957;DHT22;12165;45.458;11.062;2022-08-18T07:15:48;22.50;99.90
23957;DHT22;12165;45.458;11.062;2022-08-18T07:18:25;22.30;99.90
23957;DHT22;12165;45.458;11.062;2022-08-18T07:20:59;22.10;99.90
23957;DHT22;12165;45.458;11.062;2022-08-18T07:23:28;22.00;99.90
23957;DHT22;12165;45.458;11.062;2022-08-18T07:28:35;21.50;99.90
23957;DHT22;12165;45.458;11.062;2022-08-18T07:34:03;21.10;99.90
23957;DHT22;12165;45.458;11.062;2022-08-18T07:36:58;20.20;99.90
23957;DHT22;12165;45.458;11.062;2022-08-18T07:39:49;20.10;99.90
23957;DHT22;12165;45.458;11.062;2022-08-18T07:45:23;20.20;99.90
23957;DHT22;12165;45.458;11.062;2022-08-18T07:47:54;19.80;99.90
23957;DHT22;12165;45.458;11.062;2022-08-18T07:50:24;19.70;99.90
23957;DHT22;12165;45.458;11.062;2022-08-18T07:53:19;19.90;99.90
23957;DHT22;12165;45.458;11.062;2022-08-18T07:55:56;19.60;99.90
23957;DHT22;12165;45.458;11.062;2022-08-18T07:58:39;19.40;99.90
23957;DHT22;12165;45.458;11.062;2022-08-18T08:01:14;19.40;99.90
23957;DHT22;12165;45.458;11.062;2022-08-18T08:04:14;19.30;99.90
23957;DHT22;12165;45.458;11.062;2022-08-18T08:07:16;19.30;99.90
23957;DHT22;12165;45.458;11.062;2022-08-18T08:10:16;19.40;99.90
23957;DHT22;12165;45.458;11.062;2022-08-18T08:12:57;19.50;99.90
23957;DHT22;12165;45.458;11.062;2022-08-18T08:16:03;19.50;99.90
23957;DHT22;12165;45.458;11.062;2022-08-18T08:21:19;19.70;99.90
23957;DHT22;12165;45.458;11.062;2022-08-18T08:24:02;20.00;99.90
23957;DHT22;12165;45.458;11.062;2022-08-18T08:31:55;20.50;99.90
23957;DHT22;12165;45.458;11.062;2022-08-18T08:34:24;20.80;99.90
23957;DHT22;12165;45.458;11.062;2022-08-18T08:37:00;21.20;99.90
23957;DHT22;12165;45.458;11.062;2022-08-18T08:39:48;21.50;99.90
23957;DHT22;12165;45.458;11.062;2022-08-18T08:42:47;21.60;99.90
23957;DHT22;12165;45.458;11.062;2022-08-18T08:45:26;21.80;99.90
23957;DHT22;12165;45.458;11.062;2022-08-18T08:48:15;22.10;99.90
23957;DHT22;12165;45.458;11.062;2022-08-18T08:50:52;22.40;99.90
23957;DHT22;12165;45.458;11.062;2022-08-18T08:53:29;22.60;99.90
23957;DHT22;12165;45.458;11.062;2022-08-18T08:56:02;22.90;99.90
23957;DHT22;12165;45.458;11.062;2022-08-18T08:58:48;23.10;99.90
23957;DHT22;12165;45.458;11.062;2022-08-18T09:01:36;23.40;99.90
23957;DHT22;12165;45.458;11.062;2022-08-18T09:20:46;24.40;99.90
23957;DHT22;12165;45.458;11.062;2022-08-18T09:23:29;24.50;99.90
23957;DHT22;12165;45.458;11.062;2022-08-18T09:25:58;24.70;99.90
23957;DHT22;12165;45.458;11.062;2022-08-18T09:31:24;24.60;99.90
23957;DHT22;12165;45.458;11.062;2022-08-18T09:34:15;24.40;99.90
23957;DHT22;12165;45.458;11.062;2022-08-18T09:37:00;24.10;99.90
23957;DHT22;12165;45.458;11.062;2022-08-18T09:39:38;23.90;99.90
23957;DHT22;12165;45.458;11.062;2022-08-18T09:42:46;23.50;99.90
23957;DHT22;12165;45.458;11.062;2022-08-18T09:48:28;23.10;99.90
23957;DHT22;12165;45.458;11.062;2022-08-18T09:51:13;22.90;99.90
23957;DHT22;12165;45.458;11.062;2022-08-18T09:56:14;22.50;99.90
23957;DHT22;12165;45.458;11.062;2022-08-18T09:58:57;22.30;99.90
23957;DHT22;12165;45.458;11.062;2022-08-18T10:07:34;21.50;99.90
23957;DHT22;12165;45.458;11.062;2022-08-18T10:21:25;20.50;99.90
23957;DHT22;12165;45.458;11.062;2022-08-18T10:34:45;20.90;99.90
23957;DHT22;12165;45.458;11.062;2022-08-18T10:42:42;19.70;99.90
23957;DHT22;12165;45.458;11.062;2022-08-18T10:45:31;20.10;99.90
23957;DHT22;12165;45.458;11.062;2022-08-18T10:48:22;20.00;99.90
23957;DHT22;12165;45.458;11.062;2022-08-18T10:56:38;20.70;99.90
23957;DHT22;12165;45.458;11.062;2022-08-18T10:59:30;20.60;99.90
23957;DHT22;12165;45.458;11.062;2022-08-18T11:05:09;20.60;99.90
23957;DHT22;12165;45.458;11.062;2022-08-18T11:07:37;20.50;99.90
23957;DHT22;12165;45.458;11.062;2022-08-18T11:10:17;20.50;99.90
23957;DHT22;12165;45.458;11.062;2022-08-18T11:13:24;20.80;99.90
23957;DHT22;12165;45.458;11.062;2022-08-18T11:18:48;21.60;99.90
23957;DHT22;12165;45.458;11.062;2022-08-18T11:27:17;21.90;99.90
23957;DHT22;12165;45.458;11.062;2022-08-18T11:29:44;22.20;99.90
23957;DHT22;12165;45.458;11.062;2022-08-18T11:32:28;22.40;99.90
23957;DHT22;12165;45.458;11.062;2022-08-18T11:37:34;22.30;99.90
23957;DHT22;12165;45.458;11.062;2022-08-18T11:43:22;22.50;99.90
23957;DHT22;12165;45.458;11.062;2022-08-18T11:45:59;22.70;99.90
23957;DHT22;12165;45.458;11.062;2022-08-18T11:48:34;22.60;99.90
23957;DHT22;12165;45.458;11.062;2022-08-18T11:56:33;23.10;99.90
23957;DHT22;12165;45.458;11.062;2022-08-18T12:02:18;23.20;99.90
23957;DHT22;12165;45.458;11.062;2022-08-18T12:04:53;23.30;99.90
23957;DHT22;12165;45.458;11.062;2022-08-18T12:07:49;23.60;99.90
23957;DHT22;12165;45.458;11.062;2022-08-18T12:10:26;23.80;99.90
23957;DHT22;12165;45.458;11.062;2022-08-18T12:12:57;24.10;99.90
23957;DHT22;12165;45.458;11.062;2022-08-18T12:15:31;24.50;99.90
23957;DHT22;12165;45.458;11.062;2022-08-18T12:18:14;24.70;99.90
23957;DHT22;12165;45.458;11.062;2022-08-18T12:21:03;25.30;99.90
23957;DHT22;12165;45.458;11.062;2022-08-18T12:23:33;25.40;99.90
23957;DHT22;12165;45.458;11.062;2022-08-18T12:26:15;25.90;99.90
23957;DHT22;12165;45.458;11.062;2022-08-18T12:29:02;26.40;99.90
23957;DHT22;12165;45.458;11.062;2022-08-18T12:31:29;26.50;99.90
23957;DHT22;12165;45.458;11.062;2022-08-18T12:34:21;26.30;99.90
23957;DHT22;12165;45.458;11.062;2022-08-18T12:36:57;25.60;99.90
23957;DHT22;12165;45.458;11.062;2022-08-18T12:39:24;25.20;99.90
23957;DHT22;12165;45.458;11.062;2022-08-18T12:41:51;25.30;99.90
23957;DHT22;12165;45.458;11.062;2022-08-18T12:44:19;25.50;99.90
23957;DHT22;12165;45.458;11.062;2022-08-18T12:46:47;25.40;99.90
23957;DHT22;12165;45.458;11.062;2022-08-18T12:49:23;25.30;99.90
23957;DHT22;12165;45.458;11.062;2022-08-18T12:51:52;25.30;99.90
23957;DHT22;12165;45.458;11.062;2022-08-18T12:54:21;25.20;99.90
23957;DHT22;12165;45.458;11.062;2022-08-18T12:56:53;25.40;99.90
23957;DHT22;12165;45.458;11.062;2022-08-18T12:59:21;25.20;99.90
23957;DHT22;12165;45.458;11.062;2022-08-18T13:01:50;25.30;99.90
23957;DHT22;12165;45.458;11.062;2022-08-18T13:04:24;25.60;99.90
23957;DHT22;12165;45.458;11.062;2022-08-18T13:06:54;25.40;99.90
23957;DHT22;12165;45.458;11.062;2022-08-18T13:09:29;25.30;99.90
23957;DHT22;12165;45.458;11.062;2022-08-18T13:12:16;25.70;99.90
23957;DHT22;12165;45.458;11.062;2022-08-18T13:14:45;25.80;99.90
23957;DHT22;12165;45.458;11.062;2022-08-18T13:17:13;25.80;99.90
23957;DHT22;12165;45.458;11.062;2022-08-18T13:20:10;25.60;99.90
23957;DHT22;12165;45.458;11.062;2022-08-18T13:22:39;25.80;99.90
23957;DHT22;12165;45.458;11.062;2022-08-18T13:25:09;26.10;99.90
23957;DHT22;12165;45.458;11.062;2022-08-18T13:27:38;26.00;99.90
23957;DHT22;12165;45.458;11.062;2022-08-18T13:30:14;26.50;99.90
23957;DHT22;12165;45.458;11.062;2022-08-18T13:32:59;26.30;99.90
23957;DHT22;12165;45.458;11.062;2022-08-18T13:35:52;26.70;99.90
23957;DHT22;12165;45.458;11.062;2022-08-18T13:38:24;26.90;99.90
23957;DHT22;12165;45.458;11.062;2022-08-18T13:40:56;26.90;99.90
23957;DHT22;12165;45.458;11.062;2022-08-18T13:43:33;27.20;99.90
23957;DHT22;12165;45.458;11.062;2022-08-18T13:46:04;26.70;99.90
23957;DHT22;12165;45.458;11.062;2022-08-18T13:48:32;26.70;99.90
23957;DHT22;12165;45.458;11.062;2022-08-18T13:51:00;26.80;99.90
23957;DHT22;12165;45.458;11.062;2022-08-18T13:53:28;26.40;99.90
23957;DHT22;12165;45.458;11.062;2022-08-18T13:55:57;26.30;99.90
23957;DHT22;12165;45.458;11.062;2022-08-18T13:58:26;26.20;99.90
23957;DHT22;12165;45.458;11.062;2022-08-18T14:01:00;26.40;99.90
23957;DHT22;12165;45.458;11.062;2022-08-18T14:03:48;26.50;99.90
23957;DHT22;12165;45.458;11.062;2022-08-18T14:06:16;26.30;99.90
23957;DHT22;12165;45.458;11.062;2022-08-18T14:08:51;25.70;99.90
23957;DHT22;12165;45.458;11.062;2022-08-18T14:11:24;25.20;99.90
23957;DHT22;12165;45.458;11.062;2022-08-18T14:13:53;25.10;99.90
23957;DHT22;12165;45.458;11.062;2022-08-18T14:16:23;25.20;99.90
23957;DHT22;12165;45.458;11.062;2022-08-18T14:18:53;25.20;99.90
23957;DHT22;12165;45.458;11.062;2022-08-18T14:21:58;25.20;99.90
23957;DHT22;12165;45.458;11.062;2022-08-18T14:24:44;25.50;99.90
23957;DHT22;12165;45.458;11.062;2022-08-18T14:27:34;25.80;99.90
23957;DHT22;12165;45.458;11.062;2022-08-18T14:30:08;26.00;99.90
23957;DHT22;12165;45.458;11.062;2022-08-18T14:32:36;26.00;99.90
23957;DHT22;12165;45.458;11.062;2022-08-18T14:35:15;26.00;99.90
23957;DHT22;12165;45.458;11.062;2022-08-18T14:38:03;26.10;99.90
23957;DHT22;12165;45.458;11.062;2022-08-18T14:40:31;25.70;99.90
23957;DHT22;12165;45.458;11.062;2022-08-18T14:42:59;25.80;99.90
23957;DHT22;12165;45.458;11.062;2022-08-18T14:45:32;25.80;99.90
23957;DHT22;12165;45.458;11.062;2022-08-18T14:48:03;26.30;99.90
23957;DHT22;12165;45.458;11.062;2022-08-18T14:50:37;26.50;99.90
23957;DHT22;12165;45.458;11.062;2022-08-18T14:53:10;26.10;99.90
23957;DHT22;12165;45.458;11.062;2022-08-18T14:55:40;26.10;99.90
23957;DHT22;12165;45.458;11.062;2022-08-18T14:58:08;26.40;99.90
23957;DHT22;12165;45.458;11.062;2022-08-18T15:00:36;26.00;99.90
23957;DHT22;12165;45.458;11.062;2022-08-18T15:03:22;26.00;99.90
23957;DHT22;12165;45.458;11.062;2022-08-18T15:05:59;26.00;99.90
23957;DHT22;12165;45.458;11.062;2022-08-18T15:08:30;25.90;99.90
23957;DHT22;12165;45.458;11.062;2022-08-18T15:10:58;25.80;99.90
23957;DHT22;12165;45.458;11.062;2022-08-18T15:13:27;26.00;99.90
23957;DHT22;12165;45.458;11.062;2022-08-18T15:15:54;26.30;99.90
23957;DHT22;12165;45.458;11.062;2022-08-18T15:18:28;26.40;99.90
23957;DHT22;12165;45.458;11.062;2022-08-18T15:20:58;26.60;99.90
23957;DHT22;12165;45.458;11.062;2022-08-18T15:24:03;26.30;99.90
23957;DHT22;12165;45.458;11.062;2022-08-18T15:26:52;26.20;99.90
23957;DHT22;12165;45.458;11.062;2022-08-18T15:29:32;25.90;99.90
23957;DHT22;12165;45.458;11.062;2022-08-18T15:32:00;25.90;99.90
23957;DHT22;12165;45.458;11.062;2022-08-18T15:34:36;25.90;99.90
23957;DHT22;12165;45.458;11.062;2022-08-18T15:37:14;25.70;99.90
23957;DHT22;12165;45.458;11.062;2022-08-18T15:39:46;25.50;99.90
23957;DHT22;12165;45.458;11.062;2022-08-18T15:42:21;25.60;99.90
23957;DHT22;12165;45.458;11.062;2022-08-18T15:44:49;25.50;99.90
23957;DHT22;12165;45.458;11.062;2022-08-18T15:47:19;25.60;99.90
23957;DHT22;12165;45.458;11.062;2022-08-18T15:49:47;25.60;99.90
23957;DHT22;12165;45.458;11.062;2022-08-18T15:52:14;25.40;99.90
23957;DHT22;12165;45.458;11.062;2022-08-18T15:54:45;25.40;99.90
23957;DHT22;12165;45.458;11.062;2022-08-18T15:57:17;25.20;99.90
23957;DHT22;12165;45.458;11.062;2022-08-18T16:00:04;25.30;99.90
23957;DHT22;12165;45.458;11.062;2022-08-18T16:02:38;25.40;99.90
23957;DHT22;12165;45.458;11.062;2022-08-18T16:05:06;25.30;99.90
23957;DHT22;12165;45.458;11.062;2022-08-18T16:07:37;25.40;99.90
23957;DHT22;12165;45.458;11.062;2022-08-18T16:10:11;25.30;99.90
23957;DHT22;12165;45.458;11.062;2022-08-18T16:12:38;25.30;99.90
23957;DHT22;12165;45.458;11.062;2022-08-18T16:15:13;25.30;99.90
23957;DHT22;12165;45.458;11.062;2022-08-18T16:17:46;25.30;99.90
23957;DHT22;12165;45.458;11.062;2022-08-18T16:20:14;25.30;99.90
23957;DHT22;12165;45.458;11.062;2022-08-18T16:22:41;25.30;99.90
23957;DHT22;12165;45.458;11.062;2022-08-18T16:25:08;25.20;99.90
23957;DHT22;12165;45.458;11.062;2022-08-18T16:27:37;25.20;99.90
23957;DHT22;12165;45.458;11.062;2022-08-18T16:30:10;25.20;99.90
23957;DHT22;12165;45.458;11.062;2022-08-18T16:32:37;25.20;99.90
23957;DHT22;12165;45.458;11.062;2022-08-18T16:35:05;25.20;99.90
23957;DHT22;12165;45.458;11.062;2022-08-18T16:37:32;25.20;99.90
23957;DHT22;12165;45.458;11.062;2022-08-18T16:40:00;25.20;99.90
23957;DHT22;12165;45.458;11.062;2022-08-18T16:42:27;25.30;99.90
23957;DHT22;12165;45.458;11.062;2022-08-18T16:44:59;25.20;99.90
23957;DHT22;12165;45.458;11.062;2022-08-18T16:47:27;25.10;99.90
23957;DHT22;12165;45.458;11.062;2022-08-18T16:49:54;25.20;99.90
23957;DHT22;12165;45.458;11.062;2022-08-18T16:52:24;25.00;99.90
23957;DHT22;12165;45.458;11.062;2022-08-18T16:54:53;25.10;99.90
23957;DHT22;12165;45.458;11.062;2022-08-18T16:57:24;25.10;99.90
23957;DHT22;12165;45.458;11.062;2022-08-18T17:00:21;25.10;99.90
23957;DHT22;12165;45.458;11.062;2022-08-18T17:03:07;25.00;99.90
23957;DHT22;12165;45.458;11.062;2022-08-18T17:06:07;25.10;99.90
23957;DHT22;12165;45.458;11.062;2022-08-18T17:08:37;25.20;99.90
23957;DHT22;12165;45.458;11.062;2022-08-18T17:11:07;25.10;99.90
23957;DHT22;12165;45.458;11.062;2022-08-18T17:13:36;25.20;99.90
23957;DHT22;12165;45.458;11.062;2022-08-18T17:16:05;25.20;99.90
23957;DHT22;12165;45.458;11.062;2022-08-18T17:18:34;25.20;99.90
23957;DHT22;12165;45.458;11.062;2022-08-18T17:21:06;25.20;99.90
23957;DHT22;12165;45.458;11.062;2022-08-18T17:23:34;25.30;99.90
23957;DHT22;12165;45.458;11.062;2022-08-18T17:26:08;25.10;99.90
23957;DHT22;12165;45.458;11.062;2022-08-18T17:28:43;25.10;99.90
23957;DHT22;12165;45.458;11.062;2022-08-18T17:31:19;25.10;99.90
23957;DHT22;12165;45.458;11.062;2022-08-18T17:33:46;24.90;99.90
23957;DHT22;12165;45.458;11.062;2022-08-18T17:36:27;24.90;99.90
23957;DHT22;12165;45.458;11.062;2022-08-18T17:39:01;24.70;99.90
23957;DHT22;12165;45.458;11.062;2022-08-18T17:41:29;24.60;99.90
23957;DHT22;12165;45.458;11.062;2022-08-18T17:43:57;24.50;99.90
23957;DHT22;12165;45.458;11.062;2022-08-18T17:46:31;24.40;99.90
23957;DHT22;12165;45.458;11.062;2022-08-18T17:51:42;24.20;99.90
23957;DHT22;12165;45.458;11.062;2022-08-18T17:54:29;24.20;99.90
23957;DHT22;12165;45.458;11.062;2022-08-18T17:57:30;24.10;99.90
23957;DHT22;12165;45.458;11.062;2022-08-18T18:00:06;24.00;99.90
23957;DHT22;12165;45.458;11.062;2022-08-18T18:02:40;23.90;99.90
23957;DHT22;12165;45.458;11.062;2022-08-18T18:05:11;23.90;99.90
23957;DHT22;12165;45.458;11.062;2022-08-18T18:10:12;23.80;99.90
23957;DHT22;12165;45.458;11.062;2022-08-18T18:12:40;23.80;99.90
23957;DHT22;12165;45.458;11.062;2022-08-18T18:15:10;23.80;99.90
23957;DHT22;12165;45.458;11.062;2022-08-18T18:17:40;23.80;99.90
23957;DHT22;12165;45.458;11.062;2022-08-18T18:22:43;23.70;99.90
23957;DHT22;12165;45.458;11.062;2022-08-18T18:25:11;23.50;99.90
23957;DHT22;12165;45.458;11.062;2022-08-18T18:27:41;23.50;99.90
23957;DHT22;12165;45.458;11.062;2022-08-18T18:33:03;23.40;99.90
23957;DHT22;12165;45.458;11.062;2022-08-18T18:38:27;23.70;99.90
23957;DHT22;12165;45.458;11.062;2022-08-18T18:40:59;23.60;99.90
23957;DHT22;12165;45.458;11.062;2022-08-18T18:43:41;23.40;99.90